Time;durP1;ratioP1;P1;durP2;ratioP2;P2;SDS_P1;SDS_P2;PMS_P1;PMS_P2;Temp;Humidity;BMP_temperature;BMP_pressure;BME280_temperature;BME280_humidity;BME280_pressure;Samples;Min_cycle;Max_cycle;Signal;HPM_P1;HPM_P2
2022/11/13 00:00:27;;;;;;;;;;;16.10;92.60;;;;;;5093744;28;20347;-38
2022/11/13 00:02:53;;;;;;;;;;;16.10;92.60;;;;;;5093999;28;19915;-39
2022/11/13 00:05:18;;;;;;;;;;;16.10;92.60;;;;;;5093947;28;19992;-38
2022/11/13 00:07:44;;;;;;;;;;;16.10;92.70;;;;;;5093869;28;20014;-38
2022/11/13 00:10:09;;;;;;;;;;;16.10;92.70;;;;;;5093755;28;20362;-38
2022/11/13 00:12:34;;;;;;;;;;;16.00;92.70;;;;;;5093560;28;19908;-38
2022/11/13 00:15:00;;;;;;;;;;;16.00;92.80;;;;;;5093702;28;20315;-38
2022/11/13 00:17:26;;;;;;;;;;;16.00;92.80;;;;;;5093886;28;19916;-38
2022/11/13 00:19:52;;;;;;;;;;;15.90;92.90;;;;;;5093537;28;19995;-38
2022/11/13 00:22:17;;;;;;;;;;;15.90;92.90;;;;;;5094206;28;19939;-38
2022/11/13 00:24:43;;;;;;;;;;;15.90;92.90;;;;;;5097459;28;19995;-38
2022/11/13 00:27:08;;;;;;;;;;;15.90;93.00;;;;;;5097379;28;19912;-38
2022/11/13 00:29:34;;;;;;;;;;;15.80;93.00;;;;;;5097698;28;19912;-38
2022/11/13 00:31:59;;;;;;;;;;;15.80;93.10;;;;;;5097230;28;20286;-38
2022/11/13 00:34:25;;;;;;;;;;;15.80;93.10;;;;;;5097535;28;19964;-39
2022/11/13 00:36:50;;;;;;;;;;;15.80;93.10;;;;;;5097501;28;19912;-38
2022/11/13 00:39:15;;;;;;;;;;;15.70;93.20;;;;;;5079189;28;20381;-38
2022/11/13 00:41:41;;;;;;;;;;;15.70;93.30;;;;;;5097684;28;19908;-38
2022/11/13 00:44:07;;;;;;;;;;;15.70;93.50;;;;;;5097069;28;19908;-39
2022/11/13 00:46:32;;;;;;;;;;;15.70;93.30;;;;;;5097196;28;19908;-38
2022/11/13 00:48:57;;;;;;;;;;;15.70;93.30;;;;;;5096981;28;19909;-38
2022/11/13 00:51:23;;;;;;;;;;;15.60;93.30;;;;;;5097115;28;19969;-38
2022/11/13 00:53:48;;;;;;;;;;;15.60;93.40;;;;;;5096940;28;20358;-38
2022/11/13 00:56:14;;;;;;;;;;;15.60;93.40;;;;;;5096931;28;19916;-38
2022/11/13 00:58:39;;;;;;;;;;;15.60;93.40;;;;;;5096903;28;19920;-38
2022/11/13 01:01:07;;;;;;;;;;;15.60;93.40;;;;;;5096668;28;19948;-38
2022/11/13 01:03:32;;;;;;;;;;;15.60;93.40;;;;;;5096635;28;19908;-38
2022/11/13 01:05:58;;;;;;;;;;;15.60;93.50;;;;;;5096803;28;19908;-38
2022/11/13 01:08:23;;;;;;;;;;;15.60;93.40;;;;;;5096820;28;20015;-39
2022/11/13 01:10:49;;;;;;;;;;;15.60;93.50;;;;;;5096487;28;19931;-38
2022/11/13 01:13:15;;;;;;;;;;;15.50;93.50;;;;;;5096752;28;19908;-38
2022/11/13 01:15:41;;;;;;;;;;;15.50;93.50;;;;;;5096578;28;19961;-38
2022/11/13 01:18:06;;;;;;;;;;;15.60;93.50;;;;;;5096684;28;19982;-38
2022/11/13 01:20:32;;;;;;;;;;;15.60;93.40;;;;;;5096267;28;19908;-38
2022/11/13 01:22:58;;;;;;;;;;;15.50;93.40;;;;;;5096617;28;19908;-39
2022/11/13 01:25:24;;;;;;;;;;;15.60;93.50;;;;;;5096196;28;20362;-39
2022/11/13 01:27:49;;;;;;;;;;;15.50;93.50;;;;;;5096604;28;19994;-38
2022/11/13 01:30:15;;;;;;;;;;;15.50;93.50;;;;;;5096293;28;20252;-38
2022/11/13 01:32:40;;;;;;;;;;;15.50;93.40;;;;;;5096177;28;19935;-38
2022/11/13 01:35:06;;;;;;;;;;;15.50;93.50;;;;;;5095062;28;19958;-38
2022/11/13 01:37:31;;;;;;;;;;;15.50;93.50;;;;;;5096360;28;19916;-38
2022/11/13 01:39:57;;;;;;;;;;;15.50;93.50;;;;;;5096212;28;19912;-38
2022/11/13 01:42:22;;;;;;;;;;;15.50;93.60;;;;;;5095813;28;19991;-40
2022/11/13 01:44:51;;;;;;;;;;;15.50;93.50;;;;;;5096154;28;19959;-38
2022/11/13 01:47:17;;;;;;;;;;;15.50;93.50;;;;;;5095760;28;20371;-38
2022/11/13 01:49:43;;;;;;;;;;;15.50;93.50;;;;;;5095687;28;20247;-38
2022/11/13 01:52:11;;;;;;;;;;;15.50;93.50;;;;;;5095585;28;19919;-38
2022/11/13 01:54:39;;;;;;;;;;;15.50;93.50;;;;;;5095879;28;20041;-38
2022/11/13 01:57:05;;;;;;;;;;;15.50;93.50;;;;;;5095902;28;19912;-38
2022/11/13 01:59:33;;;;;;;;;;;15.50;93.50;;;;;;5096114;28;19935;-39
2022/11/13 02:01:58;;;;;;;;;;;15.50;93.50;;;;;;5095705;28;20421;-39
2022/11/13 02:04:24;;;;;;;;;;;15.50;93.50;;;;;;5095788;28;19940;-39
2022/11/13 02:06:53;;;;;;;;;;;15.40;93.50;;;;;;5095834;28;19931;-38
2022/11/13 02:09:19;;;;;;;;;;;15.40;93.50;;;;;;5095871;28;19926;-38
2022/11/13 02:11:45;;;;;;;;;;;15.40;93.60;;;;;;5095470;28;19907;-38
2022/11/13 02:14:11;;;;;;;;;;;15.40;93.60;;;;;;5095674;28;19998;-38
2022/11/13 02:16:38;;;;;;;;;;;15.40;93.60;;;;;;5095543;28;19999;-38
2022/11/13 02:19:06;;;;;;;;;;;15.40;93.60;;;;;;5095829;28;19927;-38
2022/11/13 02:21:37;;;;;;;;;;;15.40;93.60;;;;;;5095536;28;19962;-38
2022/11/13 02:24:15;;;;;;;;;;;15.40;93.60;;;;;;5095472;28;19908;-38
2022/11/13 02:26:41;;;;;;;;;;;15.40;93.60;;;;;;5095095;28;19953;-38
2022/11/13 02:29:06;;;;;;;;;;;15.40;93.60;;;;;;5095448;28;20339;-38
2022/11/13 02:31:32;;;;;;;;;;;15.40;93.60;;;;;;5095281;28;19908;-38
2022/11/13 02:34:00;;;;;;;;;;;15.40;93.60;;;;;;5095358;28;19916;-38
2022/11/13 02:36:25;;;;;;;;;;;15.40;93.60;;;;;;5082269;28;19967;-39
2022/11/13 02:38:51;;;;;;;;;;;15.40;93.60;;;;;;5093852;28;19913;-38
2022/11/13 02:41:17;;;;;;;;;;;15.40;93.60;;;;;;5094657;28;20407;-38
2022/11/13 02:43:42;;;;;;;;;;;15.40;93.60;;;;;;5096033;28;19915;-42
2022/11/13 02:46:07;;;;;;;;;;;15.40;93.60;;;;;;5104933;28;19908;-38
2022/11/13 02:48:33;;;;;;;;;;;15.40;93.70;;;;;;5115092;28;19931;-38
2022/11/13 02:50:59;;;;;;;;;;;15.40;93.70;;;;;;5100798;28;19912;-38
2022/11/13 02:53:24;;;;;;;;;;;15.40;93.70;;;;;;5094647;28;19958;-40
2022/11/13 02:55:50;;;;;;;;;;;15.40;93.70;;;;;;5094669;28;19912;-38
2022/11/13 02:58:15;;;;;;;;;;;15.40;93.70;;;;;;5094533;28;19912;-38
2022/11/13 03:00:41;;;;;;;;;;;15.40;93.70;;;;;;5094342;28;19908;-38
2022/11/13 03:03:06;;;;;;;;;;;15.40;93.70;;;;;;5080715;28;19919;-38
2022/11/13 03:05:31;;;;;;;;;;;15.40;93.70;;;;;;5076505;28;20350;-38
2022/11/13 03:07:57;;;;;;;;;;;15.40;93.80;;;;;;5094166;28;19974;-38
2022/11/13 03:10:22;;;;;;;;;;;15.30;93.80;;;;;;5094614;28;19962;-38
2022/11/13 03:12:48;;;;;;;;;;;15.30;93.70;;;;;;5094643;28;20343;-38
2022/11/13 03:15:13;;;;;;;;;;;15.30;93.70;;;;;;5076370;28;19908;-38
2022/11/13 03:17:39;;;;;;;;;;;15.30;93.80;;;;;;5098405;28;19955;-38
2022/11/13 03:20:04;;;;;;;;;;;15.30;93.70;;;;;;5100218;28;19946;-38
2022/11/13 03:22:30;;;;;;;;;;;15.30;93.70;;;;;;5095447;28;19909;-38
2022/11/13 03:24:56;;;;;;;;;;;15.30;93.80;;;;;;5103325;28;19912;-39
2022/11/13 03:27:21;;;;;;;;;;;15.30;93.80;;;;;;5082854;28;19908;-38
2022/11/13 03:29:47;;;;;;;;;;;15.30;93.80;;;;;;5094418;28;19912;-38
2022/11/13 03:32:13;;;;;;;;;;;15.30;93.90;;;;;;5080738;28;19940;-38
2022/11/13 03:34:38;;;;;;;;;;;15.30;94.00;;;;;;5094230;28;20327;-38
2022/11/13 03:37:03;;;;;;;;;;;15.30;93.90;;;;;;5093983;28;19912;-39
2022/11/13 03:39:29;;;;;;;;;;;15.30;93.90;;;;;;5094264;28;20282;-38
2022/11/13 03:41:54;;;;;;;;;;;15.30;93.90;;;;;;5088631;28;19912;-39
2022/11/13 03:44:20;;;;;;;;;;;15.30;93.90;;;;;;5093842;28;19908;-38
2022/11/13 03:46:45;;;;;;;;;;;15.20;93.90;;;;;;5093849;28;19915;-38
2022/11/13 03:49:11;;;;;;;;;;;15.20;94.00;;;;;;5093787;28;20410;-38
2022/11/13 03:51:36;;;;;;;;;;;15.20;93.90;;;;;;5094060;28;19908;-38
2022/11/13 03:54:02;;;;;;;;;;;15.20;93.90;;;;;;5093801;28;20011;-38
2022/11/13 03:56:27;;;;;;;;;;;15.20;93.90;;;;;;5094128;28;19912;-39
2022/11/13 03:58:53;;;;;;;;;;;15.30;94.00;;;;;;5099393;28;20262;-39
2022/11/13 04:01:18;;;;;;;;;;;15.30;93.90;;;;;;5096750;28;19923;-38
2022/11/13 04:03:43;;;;;;;;;;;15.30;93.90;;;;;;5098166;28;19908;-38
2022/11/13 04:06:09;;;;;;;;;;;15.30;93.90;;;;;;5096349;28;20316;-42
2022/11/13 04:08:34;;;;;;;;;;;15.20;93.90;;;;;;5096231;28;20014;-38
2022/11/13 04:11:06;;;;;;;;;;;15.20;93.90;;;;;;5096328;28;19969;-39
2022/11/13 04:13:32;;;;;;;;;;;15.30;93.90;;;;;;5094423;28;20363;-38
2022/11/13 04:15:57;;;;;;;;;;;15.20;93.90;;;;;;5086988;28;19919;-39
2022/11/13 04:18:23;;;;;;;;;;;15.20;93.90;;;;;;5098023;28;20379;-38
2022/11/13 04:20:48;;;;;;;;;;;15.20;93.90;;;;;;5097898;28;19912;-38
2022/11/13 04:23:16;;;;;;;;;;;15.20;93.90;;;;;;5097605;28;19908;-38
2022/11/13 04:25:42;;;;;;;;;;;15.20;93.90;;;;;;5097804;28;19966;-38
2022/11/13 04:28:08;;;;;;;;;;;15.20;94.00;;;;;;5097739;28;19952;-40
2022/11/13 04:30:33;;;;;;;;;;;15.20;93.90;;;;;;5095649;28;19999;-38
2022/11/13 04:32:59;;;;;;;;;;;15.20;94.00;;;;;;5095328;28;20414;-39
2022/11/13 04:35:24;;;;;;;;;;;15.20;94.00;;;;;;5095436;28;19935;-39
2022/11/13 04:37:50;;;;;;;;;;;15.20;93.90;;;;;;5095514;28;19920;-38
2022/11/13 04:40:16;;;;;;;;;;;15.20;94.00;;;;;;5095415;28;19968;-39
2022/11/13 04:42:50;;;;;;;;;;;15.20;93.90;;;;;;5095460;28;19909;-41
2022/11/13 04:45:17;;;;;;;;;;;15.20;93.90;;;;;;5097094;28;19908;-38
2022/11/13 04:47:42;;;;;;;;;;;15.20;93.90;;;;;;5097182;28;19915;-38
2022/11/13 04:50:08;;;;;;;;;;;15.20;93.90;;;;;;5097277;28;20306;-38
2022/11/13 04:52:33;;;;;;;;;;;15.20;93.90;;;;;;5097251;28;19908;-38
2022/11/13 04:54:59;;;;;;;;;;;15.20;93.90;;;;;;5078965;28;19908;-38
2022/11/13 04:57:24;;;;;;;;;;;15.10;93.90;;;;;;5097133;28;19922;-38
2022/11/13 04:59:50;;;;;;;;;;;15.20;94.00;;;;;;5097487;28;19935;-38
2022/11/13 05:02:15;;;;;;;;;;;15.20;93.90;;;;;;5097053;28;19908;-38
2022/11/13 05:04:41;;;;;;;;;;;15.20;93.90;;;;;;5097032;28;19947;-38
2022/11/13 05:07:06;;;;;;;;;;;15.20;93.90;;;;;;5097023;28;19908;-38
2022/11/13 05:09:32;;;;;;;;;;;15.20;93.90;;;;;;5097206;28;19943;-38
2022/11/13 05:11:57;;;;;;;;;;;15.20;93.90;;;;;;5096620;28;20382;-39
2022/11/13 05:14:22;;;;;;;;;;;15.20;93.90;;;;;;5096542;28;20271;-38
2022/11/13 05:16:49;;;;;;;;;;;15.20;94.00;;;;;;5096693;28;19968;-38
2022/11/13 05:19:15;;;;;;;;;;;15.20;94.00;;;;;;5097108;28;19912;-38
2022/11/13 05:21:40;;;;;;;;;;;15.10;93.90;;;;;;5096535;28;19908;-38
2022/11/13 05:24:08;;;;;;;;;;;15.20;94.00;;;;;;5096243;28;20354;-38
2022/11/13 05:26:35;;;;;;;;;;;15.10;93.90;;;;;;5096170;28;20424;-38
2022/11/13 05:29:01;;;;;;;;;;;15.10;94.00;;;;;;5096784;28;19931;-38
2022/11/13 05:31:26;;;;;;;;;;;15.10;94.00;;;;;;5096154;28;20359;-38
2022/11/13 05:33:52;;;;;;;;;;;15.10;94.00;;;;;;5096440;28;19908;-38
2022/11/13 05:36:18;;;;;;;;;;;15.10;94.00;;;;;;5078381;28;19918;-38
2022/11/13 05:38:45;;;;;;;;;;;15.10;94.00;;;;;;5096266;28;19912;-38
2022/11/13 05:41:20;;;;;;;;;;;15.10;94.00;;;;;;5096280;28;19908;-38
2022/11/13 05:43:46;;;;;;;;;;;15.10;94.10;;;;;;5096119;28;19916;-38
2022/11/13 05:46:21;;;;;;;;;;;15.10;94.00;;;;;;5096611;28;19920;-38
2022/11/13 05:48:50;;;;;;;;;;;15.10;94.00;;;;;;5096003;28;19912;-38
2022/11/13 05:51:16;;;;;;;;;;;15.10;94.10;;;;;;5096440;28;19961;-38
2022/11/13 05:53:42;;;;;;;;;;;15.10;94.00;;;;;;5096057;28;19908;-38
2022/11/13 05:56:11;;;;;;;;;;;15.00;94.00;;;;;;5095694;28;20427;-38
2022/11/13 05:58:36;;;;;;;;;;;15.00;94.30;;;;;;5096052;28;20359;-38
2022/11/13 06:01:06;;;;;;;;;;;15.00;94.00;;;;;;5095981;28;19915;-39
2022/11/13 06:03:32;;;;;;;;;;;15.00;94.10;;;;;;5096004;28;19918;-38
2022/11/13 06:05:58;;;;;;;;;;;15.10;94.10;;;;;;5095867;28;20002;-38
2022/11/13 06:08:23;;;;;;;;;;;15.00;94.10;;;;;;5095829;28;19923;-38
2022/11/13 06:10:49;;;;;;;;;;;15.00;94.10;;;;;;5095464;28;19965;-38
2022/11/13 06:13:14;;;;;;;;;;;15.00;94.10;;;;;;5077669;28;19908;-39
2022/11/13 06:15:40;;;;;;;;;;;15.00;94.10;;;;;;5077501;28;20350;-38
2022/11/13 06:18:05;;;;;;;;;;;15.00;94.00;;;;;;5095370;28;19965;-38
2022/11/13 06:20:32;;;;;;;;;;;15.00;94.10;;;;;;5094667;28;19916;-39
2022/11/13 06:22:58;;;;;;;;;;;15.00;94.10;;;;;;5077351;28;19919;-38
2022/11/13 06:25:23;;;;;;;;;;;15.00;94.10;;;;;;5095257;28;19912;-38
2022/11/13 06:27:49;;;;;;;;;;;15.00;94.10;;;;;;5095311;28;19991;-38
2022/11/13 06:30:14;;;;;;;;;;;15.00;94.10;;;;;;5095152;28;19908;-38
2022/11/13 06:32:40;;;;;;;;;;;15.00;94.10;;;;;;5095007;28;19908;-38
2022/11/13 06:35:05;;;;;;;;;;;15.00;94.10;;;;;;5095271;28;19908;-38
2022/11/13 06:37:31;;;;;;;;;;;15.00;94.00;;;;;;5094914;28;20351;-38
2022/11/13 06:39:56;;;;;;;;;;;15.00;94.10;;;;;;5095176;28;19934;-38
2022/11/13 06:42:22;;;;;;;;;;;15.00;94.10;;;;;;5095209;28;20378;-38
2022/11/13 06:44:47;;;;;;;;;;;15.00;94.10;;;;;;5094772;28;19908;-38
2022/11/13 06:47:13;;;;;;;;;;;15.00;94.10;;;;;;5094791;28;19908;-38
2022/11/13 06:49:38;;;;;;;;;;;15.00;94.10;;;;;;5094726;28;20002;-38
2022/11/13 06:52:04;;;;;;;;;;;15.00;94.10;;;;;;5094904;28;20374;-38
2022/11/13 06:54:29;;;;;;;;;;;15.00;94.10;;;;;;5083648;28;19995;-41
2022/11/13 06:56:54;;;;;;;;;;;15.00;94.10;;;;;;5092095;28;20304;-38
2022/11/13 06:59:20;;;;;;;;;;;15.00;94.10;;;;;;5096181;28;19915;-38
2022/11/13 07:01:48;;;;;;;;;;;15.00;94.10;;;;;;5114000;28;19918;-37
2022/11/13 07:04:14;;;;;;;;;;;15.00;94.10;;;;;;5112498;28;19911;-37
2022/11/13 07:06:39;;;;;;;;;;;15.00;94.20;;;;;;5114675;28;19915;-38
2022/11/13 07:09:05;;;;;;;;;;;15.00;94.20;;;;;;5093319;28;20018;-37
2022/11/13 07:11:30;;;;;;;;;;;15.00;94.10;;;;;;5095511;28;20350;-38
2022/11/13 07:13:56;;;;;;;;;;;15.00;94.00;;;;;;5110634;28;19911;-37
2022/11/13 07:16:21;;;;;;;;;;;15.00;94.00;;;;;;5107840;28;20381;-37
2022/11/13 07:18:53;;;;;;;;;;;15.00;94.00;;;;;;5111514;28;19969;-37
2022/11/13 07:21:19;;;;;;;;;;;15.00;94.00;;;;;;5093855;28;19922;-38
2022/11/13 07:23:46;;;;;;;;;;;15.00;94.00;;;;;;5111075;28;19918;-44
2022/11/13 07:26:12;;;;;;;;;;;14.90;93.90;;;;;;5109831;28;20254;-37
2022/11/13 07:28:37;;;;;;;;;;;15.00;93.90;;;;;;5110159;28;19919;-37
2022/11/13 07:31:03;;;;;;;;;;;14.90;93.90;;;;;;5114359;28;20342;-37
2022/11/13 07:33:28;;;;;;;;;;;15.00;93.90;;;;;;5111090;28;19916;-38
2022/11/13 07:35:54;;;;;;;;;;;14.90;93.80;;;;;;5100883;28;20019;-37
2022/11/13 07:38:20;;;;;;;;;;;15.00;93.80;;;;;;5092899;28;19916;-37
2022/11/13 07:40:45;;;;;;;;;;;14.90;93.80;;;;;;5092236;28;19908;-38
2022/11/13 07:43:11;;;;;;;;;;;14.90;93.70;;;;;;5100819;28;20101;-39
2022/11/13 07:45:36;;;;;;;;;;;14.90;93.80;;;;;;5094402;28;19923;-38
2022/11/13 07:48:02;;;;;;;;;;;14.90;94.00;;;;;;5094118;28;19947;-39
2022/11/13 07:50:29;;;;;;;;;;;14.90;94.00;;;;;;5107119;28;19914;-43
2022/11/13 07:52:56;;;;;;;;;;;14.90;94.00;;;;;;5105829;28;19908;-38
2022/11/13 07:55:21;;;;;;;;;;;14.90;94.00;;;;;;5104524;28;19914;-38
2022/11/13 07:57:47;;;;;;;;;;;14.90;94.00;;;;;;5104937;28;19916;-38
2022/11/13 08:00:12;;;;;;;;;;;14.90;94.00;;;;;;5100459;28;20347;-38
2022/11/13 08:02:38;;;;;;;;;;;14.90;94.00;;;;;;5092029;28;19907;-38
2022/11/13 08:05:04;;;;;;;;;;;14.90;94.00;;;;;;5114096;28;19954;-39
2022/11/13 08:07:29;;;;;;;;;;;14.90;94.00;;;;;;5111784;28;20253;-38
2022/11/13 08:09:54;;;;;;;;;;;14.90;93.90;;;;;;5114027;28;19911;-38
2022/11/13 08:12:20;;;;;;;;;;;14.90;94.00;;;;;;5111697;28;19907;-38
2022/11/13 08:14:45;;;;;;;;;;;14.90;94.00;;;;;;5105677;28;19908;-38
2022/11/13 08:17:11;;;;;;;;;;;14.90;94.00;;;;;;5111107;28;20274;-38
2022/11/13 08:19:36;;;;;;;;;;;14.90;93.90;;;;;;5111287;28;19911;-38
2022/11/13 08:22:02;;;;;;;;;;;14.90;93.90;;;;;;5113688;28;19911;-38
2022/11/13 08:24:27;;;;;;;;;;;14.90;94.00;;;;;;5108876;28;19908;-38
2022/11/13 08:26:53;;;;;;;;;;;14.90;93.90;;;;;;5108013;28;19907;-39
2022/11/13 08:29:18;;;;;;;;;;;14.90;93.90;;;;;;5113971;28;20250;-38
2022/11/13 08:31:43;;;;;;;;;;;14.90;93.90;;;;;;5105742;28;19907;-43
2022/11/13 08:34:09;;;;;;;;;;;14.90;93.90;;;;;;5110912;28;19956;-39
2022/11/13 08:36:34;;;;;;;;;;;14.90;93.90;;;;;;5093213;28;19926;-39
2022/11/13 08:39:00;;;;;;;;;;;14.90;93.90;;;;;;5113999;28;19908;-38
2022/11/13 08:41:25;;;;;;;;;;;14.90;93.90;;;;;;5102748;28;22179;-39
2022/11/13 08:43:51;;;;;;;;;;;14.90;93.90;;;;;;5106016;28;19908;-38
2022/11/13 08:46:16;;;;;;;;;;;14.90;93.80;;;;;;5117380;28;20265;-38
2022/11/13 08:48:42;;;;;;;;;;;14.90;93.80;;;;;;5104908;28;19995;-39
2022/11/13 08:51:07;;;;;;;;;;;14.90;93.90;;;;;;5102265;28;19956;-38
2022/11/13 08:53:33;;;;;;;;;;;14.90;93.90;;;;;;5110323;28;19930;-39
2022/11/13 08:55:59;;;;;;;;;;;14.90;93.90;;;;;;5101959;28;19923;-39
2022/11/13 08:58:24;;;;;;;;;;;14.90;93.90;;;;;;5098383;28;19913;-39
2022/11/13 09:00:50;;;;;;;;;;;14.90;94.00;;;;;;5107634;28;20404;-39
2022/11/13 09:03:15;;;;;;;;;;;14.90;94.10;;;;;;5111354;28;19912;-38
2022/11/13 09:05:41;;;;;;;;;;;14.90;94.10;;;;;;5103266;28;19951;-38
2022/11/13 09:08:06;;;;;;;;;;;14.90;94.20;;;;;;5102414;28;19920;-38
2022/11/13 09:10:32;;;;;;;;;;;14.90;94.20;;;;;;5102662;28;19964;-38
2022/11/13 09:12:58;;;;;;;;;;;14.90;94.10;;;;;;5095882;28;19924;-38
2022/11/13 09:15:23;;;;;;;;;;;14.90;94.10;;;;;;5111270;28;19997;-38
2022/11/13 09:17:49;;;;;;;;;;;14.90;94.20;;;;;;5108811;28;20377;-39
2022/11/13 09:20:15;;;;;;;;;;;14.90;94.20;;;;;;5111017;28;19911;-44
2022/11/13 09:22:40;;;;;;;;;;;14.90;94.20;;;;;;5094075;28;20060;-38
2022/11/13 09:25:06;;;;;;;;;;;14.90;94.20;;;;;;5093433;28;19935;-39
2022/11/13 09:27:31;;;;;;;;;;;14.90;94.10;;;;;;5096563;28;19995;-38
2022/11/13 09:29:57;;;;;;;;;;;14.90;94.20;;;;;;5094099;28;19912;-38
2022/11/13 09:32:22;;;;;;;;;;;14.90;94.20;;;;;;5096124;28;20266;-39
2022/11/13 09:34:51;;;;;;;;;;;14.90;94.20;;;;;;5078245;28;19915;-39
2022/11/13 09:37:16;;;;;;;;;;;14.90;94.20;;;;;;5081714;28;19944;-39
2022/11/13 09:39:42;;;;;;;;;;;14.90;94.20;;;;;;5108953;28;20230;-39
2022/11/13 09:42:14;;;;;;;;;;;14.90;94.20;;;;;;5080730;28;20006;-40
2022/11/13 09:44:52;;;;;;;;;;;14.90;94.20;;;;;;5108696;28;20357;-39
2022/11/13 09:47:23;;;;;;;;;;;14.90;94.20;;;;;;5111819;28;19947;-39
2022/11/13 09:49:55;;;;;;;;;;;14.90;94.20;;;;;;5102965;28;19917;-39
2022/11/13 09:52:26;;;;;;;;;;;14.90;94.10;;;;;;5091949;28;19912;-39
2022/11/13 09:54:52;;;;;;;;;;;14.90;94.10;;;;;;5104435;28;20014;-39
2022/11/13 09:57:17;;;;;;;;;;;14.90;94.10;;;;;;5110766;28;20010;-39
2022/11/13 09:59:46;;;;;;;;;;;14.90;94.10;;;;;;5108078;28;21280;-40
2022/11/13 10:02:30;;;;;;;;;;;14.90;94.20;;;;;;5108715;28;19920;-39
2022/11/13 10:05:03;;;;;;;;;;;14.90;94.10;;;;;;5091004;28;19912;-39
2022/11/13 10:07:44;;;;;;;;;;;14.90;94.10;;;;;;5098520;28;19982;-39
2022/11/13 10:10:19;;;;;;;;;;;14.90;94.10;;;;;;5111890;28;19998;-39
2022/11/13 10:12:45;;;;;;;;;;;14.90;94.20;;;;;;5103052;28;19912;-39
2022/11/13 10:15:11;;;;;;;;;;;14.90;94.20;;;;;;5115654;28;20354;-38
2022/11/13 10:17:45;;;;;;;;;;;14.90;94.10;;;;;;5113375;28;19961;-39
2022/11/13 10:20:17;;;;;;;;;;;14.90;94.20;;;;;;5114826;28;20147;-44
2022/11/13 10:22:48;;;;;;;;;;;14.90;94.20;;;;;;5115276;28;19965;-39
2022/11/13 10:25:15;;;;;;;;;;;14.90;94.10;;;;;;5088517;28;20359;-39
2022/11/13 10:27:41;;;;;;;;;;;14.90;94.10;;;;;;5094746;28;19916;-39
2022/11/13 10:30:16;;;;;;;;;;;14.90;94.20;;;;;;5102218;28;19916;-38
2022/11/13 10:32:44;;;;;;;;;;;14.80;94.20;;;;;;5095520;28;20007;-39
2022/11/13 10:35:21;;;;;;;;;;;14.80;94.20;;;;;;5109870;28;19931;-39
2022/11/13 10:38:00;;;;;;;;;;;14.90;94.20;;;;;;5111998;28;19916;-39
2022/11/13 10:40:36;;;;;;;;;;;14.90;94.20;;;;;;5094352;28;19920;-39
2022/11/13 10:43:04;;;;;;;;;;;14.90;94.20;;;;;;5114435;28;19911;-42
2022/11/13 10:45:30;;;;;;;;;;;14.80;94.20;;;;;;5112150;28;20002;-39
2022/11/13 10:47:55;;;;;;;;;;;14.90;94.20;;;;;;5093142;28;19943;-39
2022/11/13 10:50:25;;;;;;;;;;;14.90;94.20;;;;;;5111252;28;19920;-39
2022/11/13 10:52:52;;;;;;;;;;;14.90;94.10;;;;;;5111077;28;19917;-39
2022/11/13 10:55:21;;;;;;;;;;;14.90;94.10;;;;;;5081738;28;19919;-38
2022/11/13 10:58:01;;;;;;;;;;;14.90;94.10;;;;;;5094683;28;19912;-39
2022/11/13 11:00:34;;;;;;;;;;;14.80;94.10;;;;;;5102324;28;19972;-39
2022/11/13 11:03:00;;;;;;;;;;;14.90;94.10;;;;;;5102801;28;20086;-39
2022/11/13 11:05:26;;;;;;;;;;;14.90;94.10;;;;;;5102667;28;19994;-38
2022/11/13 11:07:52;;;;;;;;;;;14.80;94.10;;;;;;5092197;28;20297;-39
2022/11/13 11:10:30;;;;;;;;;;;14.90;94.10;;;;;;5085946;28;19912;-39
2022/11/13 11:13:00;;;;;;;;;;;14.90;94.10;;;;;;5089609;28;19920;-38
2022/11/13 11:15:28;;;;;;;;;;;14.90;94.10;;;;;;5106415;28;19920;-38
2022/11/13 11:17:59;;;;;;;;;;;14.80;94.10;;;;;;5104010;28;19919;-39
2022/11/13 11:20:37;;;;;;;;;;;14.80;94.10;;;;;;5114001;28;19916;-45
2022/11/13 11:23:18;;;;;;;;;;;14.80;94.10;;;;;;5080370;28;19918;-39
2022/11/13 11:25:50;;;;;;;;;;;14.80;94.40;;;;;;5107794;28;19908;-39
2022/11/13 11:28:25;;;;;;;;;;;14.80;94.20;;;;;;5102199;28;19955;-39
2022/11/13 11:30:54;;;;;;;;;;;14.80;94.20;;;;;;5108609;28;19911;-45
2022/11/13 11:33:34;;;;;;;;;;;14.80;94.20;;;;;;5089754;28;19919;-39
2022/11/13 11:36:32;;;;;;;;;;;14.80;94.20;;;;;;5094120;28;19916;-39
2022/11/13 11:39:03;;;;;;;;;;;14.80;94.10;;;;;;5047179;28;19959;-39
2022/11/13 11:41:32;;;;;;;;;;;14.90;94.10;;;;;;5092609;28;19923;-38
2022/11/13 11:44:00;;;;;;;;;;;15.00;94.10;;;;;;5093564;28;19908;-39
2022/11/13 11:46:28;;;;;;;;;;;15.00;94.20;;;;;;5093900;28;20306;-39
2022/11/13 11:48:56;;;;;;;;;;;15.10;94.10;;;;;;5093737;28;19956;-38
2022/11/13 11:51:22;;;;;;;;;;;15.20;94.10;;;;;;5093514;28;19908;-39
2022/11/13 11:54:06;;;;;;;;;;;15.20;94.10;;;;;;5093288;28;20324;-39
2022/11/13 11:56:38;;;;;;;;;;;15.30;94.00;;;;;;5073061;28;20449;-39
2022/11/13 11:59:07;;;;;;;;;;;15.40;93.90;;;;;;5056994;28;19948;-39
2022/11/13 12:01:35;;;;;;;;;;;15.50;93.70;;;;;;5093511;28;20355;-38
2022/11/13 12:04:23;;;;;;;;;;;15.70;93.60;;;;;;5093718;28;20274;-39
2022/11/13 12:07:07;;;;;;;;;;;15.90;93.40;;;;;;5093471;28;20264;-39
2022/11/13 12:09:35;;;;;;;;;;;16.10;93.10;;;;;;5093124;28;19920;-41
2022/11/13 12:12:18;;;;;;;;;;;16.30;92.80;;;;;;5093798;28;19919;-39
2022/11/13 12:15:10;;;;;;;;;;;16.40;92.50;;;;;;5075074;28;19920;-39
2022/11/13 12:17:59;;;;;;;;;;;16.50;92.30;;;;;;5102905;28;19911;-39
2022/11/13 12:20:27;;;;;;;;;;;16.60;92.10;;;;;;5061663;28;19920;-39
2022/11/13 12:22:52;;;;;;;;;;;16.70;92.00;;;;;;5098838;28;19912;-38
2022/11/13 12:25:38;;;;;;;;;;;16.70;91.90;;;;;;5117532;28;20248;-39
2022/11/13 12:28:04;;;;;;;;;;;16.70;91.80;;;;;;5097353;28;19907;-45
2022/11/13 12:30:48;;;;;;;;;;;16.80;91.70;;;;;;5099466;28;20414;-39
2022/11/13 12:33:16;;;;;;;;;;;16.70;91.70;;;;;;5108096;28;19912;-39
2022/11/13 12:35:44;;;;;;;;;;;16.80;91.70;;;;;;5109947;28;19912;-38
2022/11/13 12:38:09;;;;;;;;;;;16.70;91.70;;;;;;5117497;28;19915;-39
2022/11/13 12:40:41;;;;;;;;;;;16.70;91.70;;;;;;5111161;28;19908;-39
2022/11/13 12:43:15;;;;;;;;;;;16.70;91.70;;;;;;5117258;28;19911;-39
2022/11/13 12:45:48;;;;;;;;;;;16.70;91.70;;;;;;5115144;28;19951;-39
2022/11/13 12:48:16;;;;;;;;;;;16.70;91.80;;;;;;5111803;28;19935;-38
2022/11/13 12:50:42;;;;;;;;;;;16.70;91.80;;;;;;5117119;28;19908;-39
2022/11/13 12:53:11;;;;;;;;;;;16.70;91.80;;;;;;5115219;28;20048;-40
2022/11/13 12:55:38;;;;;;;;;;;16.60;91.90;;;;;;5113587;28;19998;-40
2022/11/13 12:58:09;;;;;;;;;;;16.60;91.90;;;;;;5109696;28;19969;-39
2022/11/13 13:00:35;;;;;;;;;;;16.60;92.00;;;;;;5116042;28;20315;-45
2022/11/13 13:03:07;;;;;;;;;;;16.60;92.10;;;;;;5097772;28;19947;-39
2022/11/13 13:05:39;;;;;;;;;;;16.50;92.10;;;;;;5116138;28;19918;-39
2022/11/13 13:08:14;;;;;;;;;;;16.60;92.20;;;;;;5108543;28;19961;-39
2022/11/13 13:10:58;;;;;;;;;;;16.50;92.20;;;;;;5117224;28;19912;-40
2022/11/13 13:13:28;;;;;;;;;;;16.50;92.30;;;;;;5106058;28;20045;-39
2022/11/13 13:15:58;;;;;;;;;;;16.50;92.30;;;;;;5102206;28;19912;-39
2022/11/13 13:18:34;;;;;;;;;;;16.50;92.30;;;;;;5116549;28;19912;-39
2022/11/13 13:21:07;;;;;;;;;;;16.50;92.40;;;;;;5110940;28;19916;-39
2022/11/13 13:23:38;;;;;;;;;;;16.50;92.30;;;;;;5117061;28;19930;-39
2022/11/13 13:26:19;;;;;;;;;;;16.50;92.30;;;;;;5105496;28;19916;-40
2022/11/13 13:28:47;;;;;;;;;;;16.60;92.30;;;;;;5097103;28;19916;-39
2022/11/13 13:31:20;;;;;;;;;;;16.60;92.30;;;;;;5112551;28;19912;-39
2022/11/13 13:34:01;;;;;;;;;;;16.60;92.20;;;;;;5116397;28;19908;-39
2022/11/13 13:36:31;;;;;;;;;;;16.60;92.20;;;;;;5114157;28;20007;-39
2022/11/13 13:39:19;;;;;;;;;;;16.70;92.20;;;;;;5107456;28;19988;-39
2022/11/13 13:42:03;;;;;;;;;;;16.70;92.20;;;;;;5059583;28;19923;-39
2022/11/13 13:44:38;;;;;;;;;;;16.70;92.20;;;;;;5094625;28;20378;-39
2022/11/13 13:47:08;;;;;;;;;;;16.70;92.10;;;;;;5104212;28;19918;-39
2022/11/13 13:49:35;;;;;;;;;;;16.70;92.10;;;;;;5108283;28;19912;-39
2022/11/13 13:52:01;;;;;;;;;;;16.70;92.10;;;;;;5111817;28;19912;-39
2022/11/13 13:54:28;;;;;;;;;;;16.70;92.10;;;;;;5082288;28;20462;-41
2022/11/13 13:56:55;;;;;;;;;;;16.70;92.20;;;;;;5076097;28;20365;-39
2022/11/13 13:59:29;;;;;;;;;;;16.70;92.20;;;;;;5095735;28;19965;-39
2022/11/13 14:01:57;;;;;;;;;;;16.70;92.20;;;;;;5096323;28;20461;-39
2022/11/13 14:04:26;;;;;;;;;;;16.70;92.20;;;;;;5079050;28;20087;-39
2022/11/13 14:06:56;;;;;;;;;;;16.70;92.20;;;;;;5095059;28;20381;-39
2022/11/13 14:09:23;;;;;;;;;;;16.70;92.20;;;;;;5095661;28;19927;-39
2022/11/13 14:12:04;;;;;;;;;;;16.70;92.30;;;;;;5095142;28;20347;-39
2022/11/13 14:14:30;;;;;;;;;;;16.60;92.30;;;;;;5097042;28;21808;-39
2022/11/13 14:16:59;;;;;;;;;;;16.60;92.30;;;;;;5101793;28;19970;-39
2022/11/13 14:19:25;;;;;;;;;;;16.60;92.40;;;;;;5095322;28;19916;-39